Time;durP1;ratioP1;P1;durP2;ratioP2;P2;SDS_P1;SDS_P2;PMS_P1;PMS_P2;Temp;Humidity;BMP_temperature;BMP_pressure;BME280_temperature;BME280_humidity;BME280_pressure;Samples;Min_cycle;Max_cycle;Signal;HPM_P1;HPM_P2
2021/12/11 00:00:42;;;;;;;;;;;;;;;;;;5082312;28;19928;-69
2021/12/11 00:03:12;;;;;;;;;;;;;;;;;;5079952;28;20286;-69
2021/12/11 00:05:39;;;;;;;;;;;;;;;;;;5077053;28;19925;-69
2021/12/11 00:08:07;;;;;;;;;;;;;;;;;;5085108;28;20468;-69
2021/12/11 00:10:34;;;;;;;;;;;;;;;;;;5087928;28;19928;-69
2021/12/11 00:13:01;;;;;;;;;;;;;;;;;;5087056;28;19931;-69
2021/12/11 00:15:28;;;;;;;;;;;;;;;;;;5078007;28;20015;-69
2021/12/11 00:17:55;;;;;;;;;;;;;;;;;;5079083;28;19930;-69
2021/12/11 00:20:22;;;;;;;;;;;;;;;;;;5082190;28;19932;-69
2021/12/11 00:22:49;;;;;;;;;;;;;;;;;;5089586;28;19924;-67
2021/12/11 00:25:16;;;;;;;;;;;;;;;;;;5080651;28;19928;-69
2021/12/11 00:27:43;;;;;;;;;;;;;;;;;;5078888;28;20011;-69
2021/12/11 00:30:10;;;;;;;;;;;;;;;;;;5082338;28;19924;-69
2021/12/11 00:32:37;;;;;;;;;;;;;;;;;;5083872;28;19924;-69
2021/12/11 00:35:04;;;;;;;;;;;;;;;;;;5085157;28;20382;-69
2021/12/11 00:37:32;;;;;;;;;;;;;;;;;;5076988;28;19924;-69
2021/12/11 00:39:59;;;;;;;;;;;;;;;;;;5080710;28;19934;-69
2021/12/11 00:42:32;;;;;;;;;;;;;;;;;;5086871;28;19928;-69
2021/12/11 00:45:00;;;;;;;;;;;;;;;;;;5081079;28;19924;-69
2021/12/11 00:47:27;;;;;;;;;;;;;;;;;;5081592;28;19946;-69
2021/12/11 00:49:54;;;;;;;;;;;;;;;;;;5083108;28;20149;-69
2021/12/11 00:52:21;;;;;;;;;;;;;;;;;;5085552;28;19924;-67
2021/12/11 00:54:48;;;;;;;;;;;;;;;;;;5077956;28;19928;-67
2021/12/11 00:57:15;;;;;;;;;;;;;;;;;;5085368;28;20297;-67
2021/12/11 00:59:42;;;;;;;;;;;;;;;;;;5086590;28;19928;-68
2021/12/11 01:02:09;;;;;;;;;;;;;;;;;;5088425;28;19946;-67
2021/12/11 01:04:41;;;;;;;;;;;;;;;;;;5082643;28;19933;-68
2021/12/11 01:07:08;;;;;;;;;;;;;;;;;;5080476;28;20017;-68
2021/12/11 01:09:34;;;;;;;;;;;;;;;;;;5080763;28;19924;-68
2021/12/11 01:12:05;;;;;;;;;;;;;;;;;;5085492;28;19924;-68
2021/12/11 01:14:36;;;;;;;;;;;;;;;;;;5091029;28;19924;-68
2021/12/11 01:17:04;;;;;;;;;;;;;;;;;;5076373;28;20019;-68
2021/12/11 01:19:36;;;;;;;;;;;;;;;;;;5080947;28;19924;-67
2021/12/11 01:22:10;;;;;;;;;;;;;;;;;;5087089;28;19928;-67
2021/12/11 01:24:43;;;;;;;;;;;;;;;;;;5078080;28;19968;-68
2021/12/11 01:27:10;;;;;;;;;;;;;;;;;;5079020;28;19928;-67
2021/12/11 01:29:37;;;;;;;;;;;;;;;;;;5087006;28;20014;-68
2021/12/11 01:32:04;;;;;;;;;;;;;;;;;;5086633;28;19928;-68
2021/12/11 01:34:31;;;;;;;;;;;;;;;;;;5084752;28;19925;-69
2021/12/11 01:36:58;;;;;;;;;;;;;;;;;;5081630;28;19924;-69
2021/12/11 01:39:25;;;;;;;;;;;;;;;;;;5085661;28;20317;-69
2021/12/11 01:41:52;;;;;;;;;;;;;;;;;;5090534;28;19925;-69
2021/12/11 01:44:19;;;;;;;;;;;;;;;;;;5092446;28;19940;-68
2021/12/11 01:46:46;;;;;;;;;;;;;;;;;;5090566;28;20476;-69
2021/12/11 01:49:13;;;;;;;;;;;;;;;;;;5085900;28;19924;-69
2021/12/11 01:51:40;;;;;;;;;;;;;;;;;;5088187;28;19930;-69
2021/12/11 01:54:07;;;;;;;;;;;;;;;;;;5090009;28;19932;-70
2021/12/11 01:56:34;;;;;;;;;;;;;;;;;;5085832;28;20002;-69
2021/12/11 01:59:02;;;;;;;;;;;;;;;;;;5092717;28;19978;-69
2021/12/11 02:01:29;;;;;;;;;;;;;;;;;;5084216;28;20373;-68
2021/12/11 02:03:56;;;;;;;;;;;;;;;;;;5094343;28;19930;-67
2021/12/11 02:06:23;;;;;;;;;;;;;;;;;;5086644;28;19928;-68
2021/12/11 02:08:50;;;;;;;;;;;;;;;;;;5083541;28;19932;-68
2021/12/11 02:11:17;;;;;;;;;;;;;;;;;;5087537;28;20427;-68
2021/12/11 02:13:47;;;;;;;;;;;;;;;;;;5089223;28;19934;-67
2021/12/11 02:16:14;;;;;;;;;;;;;;;;;;5090709;28;20356;-67
2021/12/11 02:18:45;;;;;;;;;;;;;;;;;;5081143;28;19936;-67
2021/12/11 02:21:12;;;;;;;;;;;;;;;;;;5092465;28;19977;-67
2021/12/11 02:23:39;;;;;;;;;;;;;;;;;;5093556;28;20377;-67
2021/12/11 02:26:06;;;;;;;;;;;;;;;;;;5088642;28;20333;-67
2021/12/11 02:28:33;;;;;;;;;;;;;;;;;;5088123;28;19924;-67
2021/12/11 02:31:04;;;;;;;;;;;;;;;;;;5089456;28;19955;-68
2021/12/11 02:33:31;;;;;;;;;;;;;;;;;;5081988;28;19929;-69
2021/12/11 02:35:58;;;;;;;;;;;;;;;;;;5091964;28;19928;-69
2021/12/11 02:38:25;;;;;;;;;;;;;;;;;;5082276;28;19930;-69
2021/12/11 02:40:52;;;;;;;;;;;;;;;;;;5087116;28;20301;-68
2021/12/11 02:43:19;;;;;;;;;;;;;;;;;;5091010;28;19924;-68
2021/12/11 02:45:46;;;;;;;;;;;;;;;;;;5087947;28;20345;-68
2021/12/11 02:48:13;;;;;;;;;;;;;;;;;;5095045;28;19931;-69
2021/12/11 02:50:40;;;;;;;;;;;;;;;;;;5082141;28;19931;-68
2021/12/11 02:53:07;;;;;;;;;;;;;;;;;;5081567;28;19932;-68
2021/12/11 02:55:34;;;;;;;;;;;;;;;;;;5080220;28;20003;-68
2021/12/11 02:58:01;;;;;;;;;;;;;;;;;;5080937;28;19995;-68
2021/12/11 03:00:28;;;;;;;;;;;;;;;;;;5080938;28;20011;-68
2021/12/11 03:03:01;;;;;;;;;;;;;;;;;;5079290;28;19925;-69
2021/12/11 03:05:36;;;;;;;;;;;;;;;;;;5080783;28;19977;-69
2021/12/11 03:08:05;;;;;;;;;;;;;;;;;;5090516;28;20007;-69
2021/12/11 03:10:32;;;;;;;;;;;;;;;;;;5084920;28;20023;-69
2021/12/11 03:12:59;;;;;;;;;;;;;;;;;;5089561;28;19924;-69
2021/12/11 03:15:26;;;;;;;;;;;;;;;;;;5084702;28;19928;-69
2021/12/11 03:17:53;;;;;;;;;;;;;;;;;;5088383;28;20279;-69
2021/12/11 03:20:20;;;;;;;;;;;;;;;;;;5090407;28;19924;-70
2021/12/11 03:22:47;;;;;;;;;;;;;;;;;;5079160;28;19935;-68
2021/12/11 03:25:14;;;;;;;;;;;;;;;;;;5080512;28;19928;-69
2021/12/11 03:27:41;;;;;;;;;;;;;;;;;;5084490;28;19947;-68
2021/12/11 03:30:08;;;;;;;;;;;;;;;;;;5088309;28;19932;-69
2021/12/11 03:32:35;;;;;;;;;;;;;;;;;;5087914;28;20009;-69
2021/12/11 03:35:01;;;;;;;;;;;;;;;;;;5089091;28;19940;-68
2021/12/11 03:37:28;;;;;;;;;;;;;;;;;;5087089;28;19924;-69
2021/12/11 03:39:55;;;;;;;;;;;;;;;;;;5082101;28;19925;-69
2021/12/11 03:42:22;;;;;;;;;;;;;;;;;;5080900;28;19935;-67
2021/12/11 03:44:49;;;;;;;;;;;;;;;;;;5082118;28;19964;-68
2021/12/11 03:47:16;;;;;;;;;;;;;;;;;;5082314;28;19928;-69
2021/12/11 03:49:43;;;;;;;;;;;;;;;;;;5084998;28;19924;-69
2021/12/11 03:52:10;;;;;;;;;;;;;;;;;;5092623;28;19928;-69
2021/12/11 03:54:37;;;;;;;;;;;;;;;;;;5084656;28;19929;-68
2021/12/11 03:57:04;;;;;;;;;;;;;;;;;;5080114;28;19925;-68
2021/12/11 03:59:31;;;;;;;;;;;;;;;;;;5080718;28;19939;-68
2021/12/11 04:02:00;;;;;;;;;;;;;;;;;;5076180;28;20396;-69
2021/12/11 04:04:27;;;;;;;;;;;;;;;;;;5086523;28;19928;-69
2021/12/11 04:06:54;;;;;;;;;;;;;;;;;;5084652;28;19924;-67
2021/12/11 04:09:21;;;;;;;;;;;;;;;;;;5090607;28;19924;-68
2021/12/11 04:11:48;;;;;;;;;;;;;;;;;;5088991;28;19924;-69
2021/12/11 04:14:15;;;;;;;;;;;;;;;;;;5085943;28;20278;-69
2021/12/11 04:16:42;;;;;;;;;;;;;;;;;;5081362;28;20014;-68
2021/12/11 04:19:09;;;;;;;;;;;;;;;;;;5083066;28;20009;-69
2021/12/11 04:21:36;;;;;;;;;;;;;;;;;;5083818;28;19924;-69
2021/12/11 04:24:03;;;;;;;;;;;;;;;;;;5079264;28;19947;-67
2021/12/11 04:26:30;;;;;;;;;;;;;;;;;;5089362;28;19930;-69
2021/12/11 04:28:57;;;;;;;;;;;;;;;;;;5090385;28;19930;-69
2021/12/11 04:31:24;;;;;;;;;;;;;;;;;;5080988;28;19928;-69
2021/12/11 04:33:51;;;;;;;;;;;;;;;;;;5087741;28;19947;-68
2021/12/11 04:36:18;;;;;;;;;;;;;;;;;;5081406;28;20343;-68
2021/12/11 04:38:45;;;;;;;;;;;;;;;;;;5081272;28;19931;-69
2021/12/11 04:41:14;;;;;;;;;;;;;;;;;;5087169;28;19931;-69
2021/12/11 04:43:41;;;;;;;;;;;;;;;;;;5081140;28;19924;-69
2021/12/11 04:46:08;;;;;;;;;;;;;;;;;;5085966;28;20041;-69
2021/12/11 04:48:41;;;;;;;;;;;;;;;;;;5077749;28;20007;-69
2021/12/11 04:51:14;;;;;;;;;;;;;;;;;;5083973;28;20390;-68
2021/12/11 04:53:54;;;;;;;;;;;;;;;;;;5086784;28;19928;-68
2021/12/11 04:56:44;;;;;;;;;;;;;;;;;;5090313;22;19928;-63
2021/12/11 04:59:29;;;;;;;;;;;;;;;;;;5080752;28;19975;-63
2021/12/11 05:02:06;;;;;;;;;;;;;;;;;;5081805;28;20026;-63
2021/12/11 05:04:51;;;;;;;;;;;;;;;;;;5085683;28;19928;-64
2021/12/11 05:07:35;;;;;;;;;;;;;;;;;;5082330;28;19928;-63
2021/12/11 05:10:07;;;;;;;;;;;;;;;;;;5085030;28;19928;-64
2021/12/11 05:12:35;;;;;;;;;;;;;;;;;;5088102;28;20270;-65
2021/12/11 05:15:02;;;;;;;;;;;;;;;;;;5085738;28;20072;-64
2021/12/11 05:17:29;;;;;;;;;;;;;;;;;;5084613;28;19931;-64
2021/12/11 05:19:56;;;;;;;;;;;;;;;;;;5086939;28;19924;-64
2021/12/11 05:22:23;;;;;;;;;;;;;;;;;;5086641;28;19931;-65
2021/12/11 05:24:50;;;;;;;;;;;;;;;;;;5086161;28;19928;-64
2021/12/11 05:27:17;;;;;;;;;;;;;;;;;;5085010;28;19932;-64
2021/12/11 05:29:44;;;;;;;;;;;;;;;;;;5086395;28;19949;-64
2021/12/11 05:32:11;;;;;;;;;;;;;;;;;;5087077;28;19924;-64
2021/12/11 05:34:38;;;;;;;;;;;;;;;;;;5079126;28;19925;-64
2021/12/11 05:37:05;;;;;;;;;;;;;;;;;;5082568;28;20385;-64
2021/12/11 05:39:32;;;;;;;;;;;;;;;;;;5080058;28;19924;-65
2021/12/11 05:41:59;;;;;;;;;;;;;;;;;;5081499;28;19932;-64
2021/12/11 05:44:26;;;;;;;;;;;;;;;;;;5088516;28;19955;-64
2021/12/11 05:46:53;;;;;;;;;;;;;;;;;;5081764;28;20015;-64
2021/12/11 05:49:20;;;;;;;;;;;;;;;;;;5080536;28;20274;-64
2021/12/11 05:51:47;;;;;;;;;;;;;;;;;;5082865;28;19935;-64
2021/12/11 05:54:14;;;;;;;;;;;;;;;;;;5081623;28;19924;-64
2021/12/11 05:56:41;;;;;;;;;;;;;;;;;;5082684;28;19935;-64
2021/12/11 05:59:08;;;;;;;;;;;;;;;;;;5081701;28;20011;-64
2021/12/11 06:01:35;;;;;;;;;;;;;;;;;;5082060;28;19924;-65
2021/12/11 06:04:02;;;;;;;;;;;;;;;;;;5084283;28;19924;-65
2021/12/11 06:06:29;;;;;;;;;;;;;;;;;;5085028;28;19929;-64
2021/12/11 06:08:56;;;;;;;;;;;;;;;;;;5083888;28;19924;-64
2021/12/11 06:11:23;;;;;;;;;;;;;;;;;;5082623;28;19929;-64
2021/12/11 06:13:50;;;;;;;;;;;;;;;;;;5083631;28;19931;-65
2021/12/11 06:16:17;;;;;;;;;;;;;;;;;;5086256;28;19988;-64
2021/12/11 06:18:45;;;;;;;;;;;;;;;;;;5088306;28;19924;-64
2021/12/11 06:21:12;;;;;;;;;;;;;;;;;;5085275;28;20386;-64
2021/12/11 06:23:39;;;;;;;;;;;;;;;;;;5089004;28;19924;-65
2021/12/11 06:26:05;;;;;;;;;;;;;;;;;;5088520;28;19924;-65
2021/12/11 06:28:32;;;;;;;;;;;;;;;;;;5087291;28;19924;-62
2021/12/11 06:31:02;;;;;;;;;;;;;;;;;;5089407;28;20404;-63
2021/12/11 06:33:29;;;;;;;;;;;;;;;;;;5088782;28;20014;-63
2021/12/11 06:35:56;;;;;;;;;;;;;;;;;;5082428;28;19924;-64
2021/12/11 06:38:23;;;;;;;;;;;;;;;;;;5082070;28;19947;-64
2021/12/11 06:40:50;;;;;;;;;;;;;;;;;;5087581;28;19924;-64
2021/12/11 06:43:17;;;;;;;;;;;;;;;;;;5084710;28;20199;-64
2021/12/11 06:45:44;;;;;;;;;;;;;;;;;;5086261;28;19924;-64
2021/12/11 06:48:11;;;;;;;;;;;;;;;;;;5082859;28;19924;-64
2021/12/11 06:50:38;;;;;;;;;;;;;;;;;;5084929;28;19928;-65
2021/12/11 06:53:04;;;;;;;;;;;;;;;;;;5091808;28;20400;-64
2021/12/11 06:55:31;;;;;;;;;;;;;;;;;;5085513;28;19924;-65
2021/12/11 06:57:58;;;;;;;;;;;;;;;;;;5089326;28;19932;-65
2021/12/11 07:00:26;;;;;;;;;;;;;;;;;;5087315;28;19924;-64
2021/12/11 07:02:53;;;;;;;;;;;;;;;;;;5087951;28;19924;-64
2021/12/11 07:05:20;;;;;;;;;;;;;;;;;;5091408;28;19925;-65
2021/12/11 07:07:46;;;;;;;;;;;;;;;;;;5090051;28;19924;-64
2021/12/11 07:10:13;;;;;;;;;;;;;;;;;;5084062;28;19928;-65
2021/12/11 07:12:40;;;;;;;;;;;;;;;;;;5084088;28;19934;-64
2021/12/11 07:15:07;;;;;;;;;;;;;;;;;;5088316;28;19939;-64
2021/12/11 07:17:35;;;;;;;;;;;;;;;;;;5089215;28;19924;-64
2021/12/11 07:20:02;;;;;;;;;;;;;;;;;;5088386;28;20333;-64
2021/12/11 07:22:29;;;;;;;;;;;;;;;;;;5086712;28;20007;-63
2021/12/11 07:24:56;;;;;;;;;;;;;;;;;;5089973;28;19924;-63
2021/12/11 07:27:23;;;;;;;;;;;;;;;;;;5087346;28;19924;-64
2021/12/11 07:29:50;;;;;;;;;;;;;;;;;;5087780;28;19935;-63
2021/12/11 07:32:17;;;;;;;;;;;;;;;;;;5088043;28;19930;-64
2021/12/11 07:34:44;;;;;;;;;;;;;;;;;;5083031;28;19925;-64
2021/12/11 07:37:11;;;;;;;;;;;;;;;;;;5089325;28;19931;-63
2021/12/11 07:39:38;;;;;;;;;;;;;;;;;;5087517;28;19935;-65
2021/12/11 07:42:05;;;;;;;;;;;;;;;;;;5083208;28;19929;-64
2021/12/11 07:44:32;;;;;;;;;;;;;;;;;;5080313;28;20395;-63
2021/12/11 07:46:59;;;;;;;;;;;;;;;;;;5085884;28;20273;-63
2021/12/11 07:49:26;;;;;;;;;;;;;;;;;;5085119;28;19946;-64
2021/12/11 07:51:53;;;;;;;;;;;;;;;;;;5087647;28;19924;-64
2021/12/11 07:54:20;;;;;;;;;;;;;;;;;;5080512;28;19942;-64
2021/12/11 07:56:47;;;;;;;;;;;;;;;;;;5086175;28;19932;-64
2021/12/11 07:59:14;;;;;;;;;;;;;;;;;;5086813;28;19924;-64
2021/12/11 08:01:41;;;;;;;;;;;;;;;;;;5087513;28;19932;-64
2021/12/11 08:04:08;;;;;;;;;;;;;;;;;;5084093;28;19944;-64
2021/12/11 08:06:35;;;;;;;;;;;;;;;;;;5089607;28;20389;-63
2021/12/11 08:09:02;;;;;;;;;;;;;;;;;;5090442;28;20389;-63
2021/12/11 08:11:29;;;;;;;;;;;;;;;;;;5089017;28;19924;-64
2021/12/11 08:13:56;;;;;;;;;;;;;;;;;;5082021;28;19985;-65
2021/12/11 08:16:24;;;;;;;;;;;;;;;;;;5089889;28;19924;-64
2021/12/11 08:18:53;;;;;;;;;;;;;;;;;;5091692;28;19959;-64
2021/12/11 08:21:20;;;;;;;;;;;;;;;;;;5085972;28;19932;-64
2021/12/11 08:23:49;;;;;;;;;;;;;;;;;;5083346;28;19928;-64
2021/12/11 08:26:19;;;;;;;;;;;;;;;;;;5090016;28;19924;-64
2021/12/11 08:28:45;;;;;;;;;;;;;;;;;;5086582;28;19955;-64
2021/12/11 08:31:14;;;;;;;;;;;;;;;;;;5089163;28;19924;-65
2021/12/11 08:33:41;;;;;;;;;;;;;;;;;;5090902;28;19924;-64
2021/12/11 08:36:08;;;;;;;;;;;;;;;;;;5089840;28;19928;-65
2021/12/11 08:38:35;;;;;;;;;;;;;;;;;;5086774;28;19928;-64
2021/12/11 08:41:02;;;;;;;;;;;;;;;;;;5087147;28;19924;-64
2021/12/11 08:43:29;;;;;;;;;;;;;;;;;;5083163;28;19928;-65
2021/12/11 08:46:03;;;;;;;;;;;;;;;;;;5087841;28;19932;-65
2021/12/11 08:48:31;;;;;;;;;;;;;;;;;;5086568;28;19931;-65
2021/12/11 08:50:58;;;;;;;;;;;;;;;;;;5087865;28;19989;-64
2021/12/11 08:53:25;;;;;;;;;;;;;;;;;;5087877;28;19928;-65
2021/12/11 08:55:54;;;;;;;;;;;;;;;;;;5089629;28;19925;-64
2021/12/11 08:58:20;;;;;;;;;;;;;;;;;;5080509;28;20398;-64
2021/12/11 09:00:47;;;;;;;;;;;;;;;;;;5089401;28;20444;-64
2021/12/11 09:03:14;;;;;;;;;;;;;;;;;;5084281;28;19924;-64
2021/12/11 09:05:45;;;;;;;;;;;;;;;;;;5087362;28;19930;-65
2021/12/11 09:08:12;;;;;;;;;;;;;;;;;;5084440;28;19924;-63
2021/12/11 09:10:39;;;;;;;;;;;;;;;;;;5080892;28;19924;-63
2021/12/11 09:13:06;;;;;;;;;;;;;;;;;;5080954;28;20393;-65
2021/12/11 09:15:33;;;;;;;;;;;;;;;;;;5082211;28;20290;-64
2021/12/11 09:18:00;;;;;;;;;;;;;;;;;;5081513;28;20408;-65
2021/12/11 09:20:27;;;;;;;;;;;;;;;;;;5086276;28;19947;-63
2021/12/11 09:22:54;;;;;;;;;;;;;;;;;;5085262;28;19924;-64
2021/12/11 09:25:20;;;;;;;;;;;;;;;;;;5085648;28;19924;-64
2021/12/11 09:27:47;;;;;;;;;;;;;;;;;;5088843;28;19928;-64
2021/12/11 09:30:14;;;;;;;;;;;;;;;;;;5082234;28;19930;-65
2021/12/11 09:32:41;;;;;;;;;;;;;;;;;;5086889;28;19928;-64
2021/12/11 09:35:08;;;;;;;;;;;;;;;;;;5084000;28;20297;-64
2021/12/11 09:37:35;;;;;;;;;;;;;;;;;;5081103;28;20321;-64
2021/12/11 09:40:02;;;;;;;;;;;;;;;;;;5084312;28;20302;-65
2021/12/11 09:42:29;;;;;;;;;;;;;;;;;;5085467;28;20021;-65
2021/12/11 09:44:56;;;;;;;;;;;;;;;;;;5086127;28;19924;-65
2021/12/11 09:47:23;;;;;;;;;;;;;;;;;;5085526;28;19928;-63
2021/12/11 09:49:53;;;;;;;;;;;;;;;;;;5083415;28;19924;-65
2021/12/11 09:52:23;;;;;;;;;;;;;;;;;;5082729;28;19928;-65
2021/12/11 09:54:50;;;;;;;;;;;;;;;;;;5086237;28;20371;-66
2021/12/11 09:57:17;;;;;;;;;;;;;;;;;;5085955;28;20397;-65
2021/12/11 09:59:44;;;;;;;;;;;;;;;;;;5087957;28;20345;-65
2021/12/11 10:02:11;;;;;;;;;;;;;;;;;;5086123;28;19939;-65
2021/12/11 10:04:38;;;;;;;;;;;;;;;;;;5088084;28;19928;-65
2021/12/11 10:07:26;;;;;;;;;;;;;;;;;;5087392;28;20390;-66
2021/12/11 10:09:53;;;;;;;;;;;;;;;;;;5086003;28;19931;-64
2021/12/11 10:12:20;;;;;;;;;;;;;;;;;;5088380;28;20036;-64
2021/12/11 10:14:47;;;;;;;;;;;;;;;;;;5087172;28;19925;-65
2021/12/11 10:17:14;;;;;;;;;;;;;;;;;;5087297;28;19936;-64
2021/12/11 10:19:41;;;;;;;;;;;;;;;;;;5090397;28;19924;-65
2021/12/11 10:22:09;;;;;;;;;;;;;;;;;;5088718;28;19936;-65
2021/12/11 10:24:36;;;;;;;;;;;;;;;;;;5088898;28;20393;-65
2021/12/11 10:27:03;;;;;;;;;;;;;;;;;;5091786;28;19931;-65
2021/12/11 10:29:30;;;;;;;;;;;;;;;;;;5088711;28;19924;-65
2021/12/11 10:31:57;;;;;;;;;;;;;;;;;;5090848;28;19931;-65
2021/12/11 10:34:24;;;;;;;;;;;;;;;;;;5086389;28;19928;-65
2021/12/11 10:36:51;;;;;;;;;;;;;;;;;;5087844;28;19924;-66
2021/12/11 10:39:18;;;;;;;;;;;;;;;;;;5085473;28;19928;-64
2021/12/11 10:41:45;;;;;;;;;;;;;;;;;;5088003;28;19936;-65
2021/12/11 10:44:11;;;;;;;;;;;;;;;;;;5087852;28;19924;-65
2021/12/11 10:46:38;;;;;;;;;;;;;;;;;;5087861;28;19928;-65
2021/12/11 10:49:05;;;;;;;;;;;;;;;;;;5083867;28;19924;-65
2021/12/11 10:51:32;;;;;;;;;;;;;;;;;;5086538;28;19931;-66
2021/12/11 10:53:59;;;;;;;;;;;;;;;;;;5091622;28;19931;-65
2021/12/11 10:56:26;;;;;;;;;;;;;;;;;;5101792;22;20357;-67
2021/12/11 10:58:53;;;;;;;;;;;;;;;;;;5087276;28;19947;-68
2021/12/11 11:01:21;;;;;;;;;;;;;;;;;;5086917;28;19924;-67
2021/12/11 11:03:48;;;;;;;;;;;;;;;;;;5086505;28;19924;-67
2021/12/11 11:06:15;;;;;;;;;;;;;;;;;;5080845;28;19924;-67
2021/12/11 11:08:42;;;;;;;;;;;;;;;;;;5084655;28;19924;-67
2021/12/11 11:11:09;;;;;;;;;;;;;;;;;;5087020;28;19931;-67
2021/12/11 11:13:36;;;;;;;;;;;;;;;;;;5083308;28;19952;-67
2021/12/11 11:16:03;;;;;;;;;;;;;;;;;;5084010;28;19924;-67
2021/12/11 11:18:30;;;;;;;;;;;;;;;;;;5082711;28;19932;-66
2021/12/11 11:20:57;;;;;;;;;;;;;;;;;;5083371;28;19970;-66
2021/12/11 11:23:24;;;;;;;;;;;;;;;;;;5085526;28;19925;-66
2021/12/11 11:25:51;;;;;;;;;;;;;;;;;;5083333;28;20319;-66
2021/12/11 11:28:18;;;;;;;;;;;;;;;;;;5084859;28;19924;-66
2021/12/11 11:30:45;;;;;;;;;;;;;;;;;;5081792;28;19930;-66
2021/12/11 11:33:12;;;;;;;;;;;;;;;;;;5085226;28;19928;-67
2021/12/11 11:35:42;;;;;;;;;;;;;;;;;;5083387;28;19936;-67
2021/12/11 11:38:13;;;;;;;;;;;;;;;;;;5084790;28;19924;-68
2021/12/11 11:40:40;;;;;;;;;;;;;;;;;;5087705;28;20382;-68
2021/12/11 11:43:07;;;;;;;;;;;;;;;;;;5084957;28;19938;-67
2021/12/11 11:45:34;;;;;;;;;;;;;;;;;;5085234;28;19947;-67
2021/12/11 11:48:01;;;;;;;;;;;;;;;;;;5086470;28;20316;-67
2021/12/11 11:50:28;;;;;;;;;;;;;;;;;;5081972;28;19924;-68
2021/12/11 11:52:55;;;;;;;;;;;;;;;;;;5085686;28;19929;-67
2021/12/11 11:55:22;;;;;;;;;;;;;;;;;;5082633;28;20445;-68
2021/12/11 11:57:49;;;;;;;;;;;;;;;;;;5086593;28;19924;-67
2021/12/11 12:00:16;;;;;;;;;;;;;;;;;;5082073;28;20019;-67
2021/12/11 12:02:43;;;;;;;;;;;;;;;;;;5082775;28;19928;-68
2021/12/11 12:05:09;;;;;;;;;;;;;;;;;;5083506;28;19924;-68
2021/12/11 12:07:36;;;;;;;;;;;;;;;;;;5084731;28;20003;-67
2021/12/11 12:10:03;;;;;;;;;;;;;;;;;;5082746;28;19954;-67
2021/12/11 12:12:30;;;;;;;;;;;;;;;;;;5083318;28;19925;-67
2021/12/11 12:14:57;;;;;;;;;;;;;;;;;;5081580;28;19925;-67
2021/12/11 12:17:24;;;;;;;;;;;;;;;;;;5083892;28;19924;-66
2021/12/11 12:19:51;;;;;;;;;;;;;;;;;;5083738;28;20019;-67
2021/12/11 12:22:18;;;;;;;;;;;;;;;;;;5081557;28;19930;-66
2021/12/11 12:24:45;;;;;;;;;;;;;;;;;;5082684;28;20014;-67
2021/12/11 12:27:12;;;;;;;;;;;;;;;;;;5084470;28;19931;-67
2021/12/11 12:29:39;;;;;;;;;;;;;;;;;;5079782;28;19928;-67
2021/12/11 12:32:06;;;;;;;;;;;;;;;;;;5080812;28;20383;-66
2021/12/11 12:34:33;;;;;;;;;;;;;;;;;;5083782;28;19930;-67
2021/12/11 12:37:01;;;;;;;;;;;;;;;;;;5081821;28;20346;-67
2021/12/11 12:39:33;;;;;;;;;;;;;;;;;;5083309;28;20373;-67
2021/12/11 12:42:05;;;;;;;;;;;;;;;;;;5084423;28;19977;-68
2021/12/11 12:44:32;;;;;;;;;;;;;;;;;;5079667;28;19930;-68
2021/12/11 12:46:59;;;;;;;;;;;;;;;;;;5084183;28;19924;-69
2021/12/11 12:49:26;;;;;;;;;;;;;;;;;;5082332;28;20012;-67
2021/12/11 12:51:52;;;;;;;;;;;;;;;;;;5081827;28;19931;-68
2021/12/11 12:54:19;;;;;;;;;;;;;;;;;;5080324;28;19924;-66
2021/12/11 12:56:46;;;;;;;;;;;;;;;;;;5083083;28;19925;-68
2021/12/11 12:59:13;;;;;;;;;;;;;;;;;;5081193;28;19924;-67
2021/12/11 13:01:40;;;;;;;;;;;;;;;;;;5079438;28;19929;-68
2021/12/11 13:04:07;;;;;;;;;;;;;;;;;;5078298;28;19933;-67
2021/12/11 13:06:34;;;;;;;;;;;;;;;;;;5078741;28;19925;-67
2021/12/11 13:09:01;;;;;;;;;;;;;;;;;;5081235;28;19964;-68
2021/12/11 13:11:28;;;;;;;;;;;;;;;;;;5081034;28;19950;-68
2021/12/11 13:13:55;;;;;;;;;;;;;;;;;;5083551;28;20291;-67
2021/12/11 13:16:22;;;;;;;;;;;;;;;;;;5078684;28;20257;-68
2021/12/11 13:18:49;;;;;;;;;;;;;;;;;;5080685;28;19925;-67
2021/12/11 13:21:16;;;;;;;;;;;;;;;;;;5082744;28;19924;-67
2021/12/11 13:23:43;;;;;;;;;;;;;;;;;;5082518;28;19929;-67
2021/12/11 13:26:10;;;;;;;;;;;;;;;;;;5081068;28;19955;-67
2021/12/11 13:28:37;;;;;;;;;;;;;;;;;;5081509;28;20297;-68
2021/12/11 13:31:04;;;;;;;;;;;;;;;;;;5084682;28;19931;-66
2021/12/11 13:33:31;;;;;;;;;;;;;;;;;;5080036;28;19939;-66
2021/12/11 13:35:58;;;;;;;;;;;;;;;;;;5080864;28;19924;-67
2021/12/11 13:38:25;;;;;;;;;;;;;;;;;;5082334;28;19929;-67
2021/12/11 13:40:52;;;;;;;;;;;;;;;;;;5082756;28;19928;-67
2021/12/11 13:43:19;;;;;;;;;;;;;;;;;;5086083;28;20355;-67
2021/12/11 13:45:47;;;;;;;;;;;;;;;;;;5081501;28;20386;-67
2021/12/11 13:48:15;;;;;;;;;;;;;;;;;;5081237;28;19924;-67
2021/12/11 13:50:42;;;;;;;;;;;;;;;;;;5083170;28;19994;-68
2021/12/11 13:53:09;;;;;;;;;;;;;;;;;;5083718;28;19928;-68
2021/12/11 13:55:37;;;;;;;;;;;;;;;;;;5082216;28;19924;-67
2021/12/11 13:58:04;;;;;;;;;;;;;;;;;;5083643;28;19947;-66
2021/12/11 14:00:31;;;;;;;;;;;;;;;;;;5081200;28;20392;-67
2021/12/11 14:02:58;;;;;;;;;;;;;;;;;;5081473;28;19925;-67
2021/12/11 14:05:27;;;;;;;;;;;;;;;;;;5083493;28;19936;-67
2021/12/11 14:07:54;;;;;;;;;;;;;;;;;;5078172;28;20301;-67
2021/12/11 14:10:27;;;;;;;;;;;;;;;;;;5079793;28;19924;-67
2021/12/11 14:12:54;;;;;;;;;;;;;;;;;;5082206;28;19928;-67
2021/12/11 14:15:21;;;;;;;;;;;;;;;;;;5081709;28;19931;-67
2021/12/11 14:17:48;;;;;;;;;;;;;;;;;;5080307;28;19929;-68
2021/12/11 14:20:15;;;;;;;;;;;;;;;;;;5078316;28;19931;-67
2021/12/11 14:22:42;;;;;;;;;;;;;;;;;;5082131;28;19924;-67
2021/12/11 14:25:09;;;;;;;;;;;;;;;;;;5082152;28;20016;-67
2021/12/11 14:27:36;;;;;;;;;;;;;;;;;;5083162;28;20389;-67
2021/12/11 14:30:03;;;;;;;;;;;;;;;;;;5081310;28;20472;-67
2021/12/11 14:32:30;;;;;;;;;;;;;;;;;;5083122;28;20279;-67
2021/12/11 14:34:57;;;;;;;;;;;;;;;;;;5084965;28;20167;-68
2021/12/11 14:37:24;;;;;;;;;;;;;;;;;;5082018;28;19928;-67
2021/12/11 14:39:51;;;;;;;;;;;;;;;;;;5081337;28;19924;-67
2021/12/11 14:42:18;;;;;;;;;;;;;;;;;;5083712;28;19924;-68
2021/12/11 14:44:45;;;;;;;;;;;;;;;;;;5083071;28;19925;-68
2021/12/11 14:47:12;;;;;;;;;;;;;;;;;;5087233;28;19924;-67
2021/12/11 14:49:39;;;;;;;;;;;;;;;;;;5088556;28;20405;-67
2021/12/11 14:52:05;;;;;;;;;;;;;;;;;;5086029;28;19924;-67
2021/12/11 14:54:32;;;;;;;;;;;;;;;;;;5085853;28;19924;-67
2021/12/11 14:56:59;;;;;;;;;;;;;;;;;;5085787;28;20296;-67
2021/12/11 14:59:26;;;;;;;;;;;;;;;;;;5079174;28;20011;-67
2021/12/11 15:01:53;;;;;;;;;;;;;;;;;;5076912;28;20521;-67
2021/12/11 15:04:20;;;;;;;;;;;;;;;;;;5083706;28;19931;-67
2021/12/11 15:06:47;;;;;;;;;;;;;;;;;;5079584;28;19997;-68
2021/12/11 15:09:14;;;;;;;;;;;;;;;;;;5078350;28;19932;-68
2021/12/11 15:11:41;;;;;;;;;;;;;;;;;;5085364;28;19928;-68
2021/12/11 15:14:08;;;;;;;;;;;;;;;;;;5082457;28;20316;-69
2021/12/11 15:16:35;;;;;;;;;;;;;;;;;;5081376;28;19961;-69
2021/12/11 15:19:02;;;;;;;;;;;;;;;;;;5083441;28;19932;-67
2021/12/11 15:21:29;;;;;;;;;;;;;;;;;;5082846;28;19928;-67
2021/12/11 15:23:59;;;;;;;;;;;;;;;;;;5082717;28;19929;-67
2021/12/11 15:26:26;;;;;;;;;;;;;;;;;;5078628;28;19963;-67
2021/12/11 15:28:53;;;;;;;;;;;;;;;;;;5083325;28;19932;-67
2021/12/11 15:31:20;;;;;;;;;;;;;;;;;;5077890;28;20270;-68
2021/12/11 15:33:47;;;;;;;;;;;;;;;;;;5080733;28;20327;-68
2021/12/11 15:36:14;;;;;;;;;;;;;;;;;;5078136;28;19930;-68
2021/12/11 15:38:41;;;;;;;;;;;;;;;;;;5080729;28;19963;-67
2021/12/11 15:41:08;;;;;;;;;;;;;;;;;;5081947;28;19934;-68
2021/12/11 15:43:36;;;;;;;;;;;;;;;;;;5084270;28;20392;-68
2021/12/11 15:46:03;;;;;;;;;;;;;;;;;;5082723;28;19924;-69
2021/12/11 15:48:30;;;;;;;;;;;;;;;;;;5087811;28;19931;-68
2021/12/11 15:50:57;;;;;;;;;;;;;;;;;;5087415;28;19931;-68
2021/12/11 15:53:24;;;;;;;;;;;;;;;;;;5081880;28;19924;-68
2021/12/11 15:55:51;;;;;;;;;;;;;;;;;;5073475;28;19925;-68
2021/12/11 15:58:18;;;;;;;;;;;;;;;;;;5080014;28;19929;-69
2021/12/11 16:00:45;;;;;;;;;;;;;;;;;;5080542;28;20159;-69
2021/12/11 16:03:12;;;;;;;;;;;;;;;;;;5078631;28;19932;-68
2021/12/11 16:05:39;;;;;;;;;;;;;;;;;;5078144;28;20033;-68
2021/12/11 16:08:06;;;;;;;;;;;;;;;;;;5081211;28;19932;-68
2021/12/11 16:10:33;;;;;;;;;;;;;;;;;;5080586;28;19928;-66
2021/12/11 16:13:00;;;;;;;;;;;;;;;;;;5082529;28;19932;-67
2021/12/11 16:15:27;;;;;;;;;;;;;;;;;;5081976;28;19924;-64
2021/12/11 16:17:54;;;;;;;;;;;;;;;;;;5083349;28;19924;-65
2021/12/11 16:20:21;;;;;;;;;;;;;;;;;;5083958;28;20003;-66
2021/12/11 16:22:50;;;;;;;;;;;;;;;;;;5080985;28;19924;-65
2021/12/11 16:25:18;;;;;;;;;;;;;;;;;;5081799;28;20359;-65
2021/12/11 16:27:45;;;;;;;;;;;;;;;;;;5081193;28;20395;-63
2021/12/11 16:30:12;;;;;;;;;;;;;;;;;;5077888;28;19928;-64
2021/12/11 16:32:39;;;;;;;;;;;;;;;;;;5075702;28;19939;-64
2021/12/11 16:35:06;;;;;;;;;;;;;;;;;;5075948;28;19924;-64
2021/12/11 16:37:33;;;;;;;;;;;;;;;;;;5079787;28;20160;-64
2021/12/11 16:40:01;;;;;;;;;;;;;;;;;;5078865;28;19928;-64
2021/12/11 16:42:28;;;;;;;;;;;;;;;;;;5076963;28;20003;-64
2021/12/11 16:44:55;;;;;;;;;;;;;;;;;;5076939;28;20475;-64
2021/12/11 16:47:22;;;;;;;;;;;;;;;;;;5077573;28;19930;-64